sensor_id;sensor_type;location;lat;lon;timestamp;P1;durP1;ratioP1;P2;durP2;ratioP2
80370;SDS011;69894;48.124;11.542;2023-06-01T00:00:58;7.85;;;3.63;;
80370;SDS011;69894;48.124;11.542;2023-06-01T00:03:25;6.95;;;3.45;;
80370;SDS011;69894;48.124;11.542;2023-06-01T00:05:51;8.43;;;3.70;;
80370;SDS011;69894;48.124;11.542;2023-06-01T00:08:16;9.82;;;3.90;;
80370;SDS011;69894;48.124;11.542;2023-06-01T00:10:42;9.80;;;3.78;;
80370;SDS011;69894;48.124;11.542;2023-06-01T00:13:08;10.80;;;3.78;;
80370;SDS011;69894;48.124;11.542;2023-06-01T00:15:44;8.48;;;3.67;;
80370;SDS011;69894;48.124;11.542;2023-06-01T00:18:10;8.70;;;3.40;;
80370;SDS011;69894;48.124;11.542;2023-06-01T00:23:07;6.80;;;3.33;;
80370;SDS011;69894;48.124;11.542;2023-06-01T00:25:34;9.35;;;3.72;;
80370;SDS011;69894;48.124;11.542;2023-06-01T00:27:59;7.90;;;3.53;;
80370;SDS011;69894;48.124;11.542;2023-06-01T00:30:27;6.95;;;3.50;;
80370;SDS011;69894;48.124;11.542;2023-06-01T00:32:52;10.18;;;3.90;;
80370;SDS011;69894;48.124;11.542;2023-06-01T00:35:18;8.70;;;3.80;;
80370;SDS011;69894;48.124;11.542;2023-06-01T00:37:43;9.98;;;3.63;;
80370;SDS011;69894;48.124;11.542;2023-06-01T00:40:09;9.38;;;4.18;;
80370;SDS011;69894;48.124;11.542;2023-06-01T00:42:34;8.82;;;4.10;;
80370;SDS011;69894;48.124;11.542;2023-06-01T00:45:00;9.50;;;3.55;;
80370;SDS011;69894;48.124;11.542;2023-06-01T00:47:25;9.32;;;4.55;;
80370;SDS011;69894;48.124;11.542;2023-06-01T00:49:50;9.13;;;3.92;;
80370;SDS011;69894;48.124;11.542;2023-06-01T00:52:16;10.05;;;4.53;;
80370;SDS011;69894;48.124;11.542;2023-06-01T00:54:42;7.80;;;4.03;;
80370;SDS011;69894;48.124;11.542;2023-06-01T00:57:10;9.30;;;3.97;;
80370;SDS011;69894;48.124;11.542;2023-06-01T00:59:35;8.15;;;3.85;;
80370;SDS011;69894;48.124;11.542;2023-06-01T01:02:01;10.30;;;4.45;;
80370;SDS011;69894;48.124;11.542;2023-06-01T01:04:29;9.52;;;4.07;;
80370;SDS011;69894;48.124;11.542;2023-06-01T01:07:08;9.00;;;3.95;;
80370;SDS011;69894;48.124;11.542;2023-06-01T01:17:53;7.88;;;4.05;;
80370;SDS011;69894;48.124;11.542;2023-06-01T01:20:22;10.15;;;4.30;;
80370;SDS011;69894;48.124;11.542;2023-06-01T01:23:02;8.00;;;4.03;;
80370;SDS011;69894;48.124;11.542;2023-06-01T01:25:35;6.70;;;3.15;;
80370;SDS011;69894;48.124;11.542;2023-06-01T01:30:31;8.63;;;4.00;;
80370;SDS011;69894;48.124;11.542;2023-06-01T01:32:58;9.63;;;4.07;;
80370;SDS011;69894;48.124;11.542;2023-06-01T01:35:25;8.02;;;4.03;;
80370;SDS011;69894;48.124;11.542;2023-06-01T01:37:52;8.30;;;3.90;;
80370;SDS011;69894;48.124;11.542;2023-06-01T01:40:18;7.45;;;3.97;;
80370;SDS011;69894;48.124;11.542;2023-06-01T01:42:43;9.10;;;4.03;;
80370;SDS011;69894;48.124;11.542;2023-06-01T01:45:09;9.70;;;4.03;;
80370;SDS011;69894;48.124;11.542;2023-06-01T01:47:36;10.20;;;4.40;;
80370;SDS011;69894;48.124;11.542;2023-06-01T01:50:08;9.95;;;4.20;;
80370;SDS011;69894;48.124;11.542;2023-06-01T01:52:36;10.32;;;3.97;;
80370;SDS011;69894;48.124;11.542;2023-06-01T01:55:03;12.25;;;4.47;;
80370;SDS011;69894;48.124;11.542;2023-06-01T01:57:29;10.23;;;4.35;;
80370;SDS011;69894;48.124;11.542;2023-06-01T01:59:55;11.02;;;4.35;;
80370;SDS011;69894;48.124;11.542;2023-06-01T02:02:21;9.57;;;3.88;;
80370;SDS011;69894;48.124;11.542;2023-06-01T02:04:47;10.65;;;4.45;;
80370;SDS011;69894;48.124;11.542;2023-06-01T02:07:12;9.20;;;4.10;;
80370;SDS011;69894;48.124;11.542;2023-06-01T02:09:38;10.90;;;4.40;;
80370;SDS011;69894;48.124;11.542;2023-06-01T02:12:04;9.80;;;4.88;;
80370;SDS011;69894;48.124;11.542;2023-06-01T02:14:29;11.00;;;4.05;;
80370;SDS011;69894;48.124;11.542;2023-06-01T02:16:55;13.30;;;4.47;;
80370;SDS011;69894;48.124;11.542;2023-06-01T02:19:20;9.75;;;4.03;;
80370;SDS011;69894;48.124;11.542;2023-06-01T02:21:46;10.20;;;4.13;;
80370;SDS011;69894;48.124;11.542;2023-06-01T02:24:12;8.43;;;4.38;;
80370;SDS011;69894;48.124;11.542;2023-06-01T02:26:38;9.15;;;3.63;;
80370;SDS011;69894;48.124;11.542;2023-06-01T02:29:03;9.45;;;4.00;;
80370;SDS011;69894;48.124;11.542;2023-06-01T02:31:30;10.40;;;4.18;;
80370;SDS011;69894;48.124;11.542;2023-06-01T02:33:56;9.02;;;4.35;;
80370;SDS011;69894;48.124;11.542;2023-06-01T02:36:22;8.45;;;3.72;;
80370;SDS011;69894;48.124;11.542;2023-06-01T02:38:49;7.35;;;3.80;;
80370;SDS011;69894;48.124;11.542;2023-06-01T02:41:14;9.85;;;4.45;;
80370;SDS011;69894;48.124;11.542;2023-06-01T02:43:40;9.63;;;3.97;;
80370;SDS011;69894;48.124;11.542;2023-06-01T02:46:05;9.25;;;4.15;;
80370;SDS011;69894;48.124;11.542;2023-06-01T02:48:30;10.43;;;4.90;;
80370;SDS011;69894;48.124;11.542;2023-06-01T02:50:56;11.23;;;3.90;;
80370;SDS011;69894;48.124;11.542;2023-06-01T02:53:21;11.77;;;4.47;;
80370;SDS011;69894;48.124;11.542;2023-06-01T02:55:46;9.60;;;4.90;;
80370;SDS011;69894;48.124;11.542;2023-06-01T02:58:12;11.35;;;4.25;;
80370;SDS011;69894;48.124;11.542;2023-06-01T03:00:41;10.25;;;4.10;;
80370;SDS011;69894;48.124;11.542;2023-06-01T03:03:07;10.73;;;4.47;;
80370;SDS011;69894;48.124;11.542;2023-06-01T03:05:32;11.75;;;3.97;;
80370;SDS011;69894;48.124;11.542;2023-06-01T03:07:58;9.75;;;4.28;;
80370;SDS011;69894;48.124;11.542;2023-06-01T03:10:23;7.97;;;3.88;;
80370;SDS011;69894;48.124;11.542;2023-06-01T03:12:49;8.95;;;3.72;;
80370;SDS011;69894;48.124;11.542;2023-06-01T03:15:14;12.23;;;4.50;;
80370;SDS011;69894;48.124;11.542;2023-06-01T03:17:40;8.80;;;4.00;;
80370;SDS011;69894;48.124;11.542;2023-06-01T03:20:06;9.77;;;3.53;;
80370;SDS011;69894;48.124;11.542;2023-06-01T03:22:39;9.00;;;4.38;;
80370;SDS011;69894;48.124;11.542;2023-06-01T03:25:06;7.93;;;3.40;;
80370;SDS011;69894;48.124;11.542;2023-06-01T03:27:32;11.32;;;4.28;;
80370;SDS011;69894;48.124;11.542;2023-06-01T03:29:57;8.88;;;3.85;;
80370;SDS011;69894;48.124;11.542;2023-06-01T03:32:22;9.23;;;3.95;;
80370;SDS011;69894;48.124;11.542;2023-06-01T03:34:48;9.38;;;4.28;;
80370;SDS011;69894;48.124;11.542;2023-06-01T03:37:13;10.75;;;3.58;;
80370;SDS011;69894;48.124;11.542;2023-06-01T03:39:39;8.65;;;4.13;;
80370;SDS011;69894;48.124;11.542;2023-06-01T03:42:05;10.25;;;4.18;;
80370;SDS011;69894;48.124;11.542;2023-06-01T03:44:31;9.40;;;3.72;;
80370;SDS011;69894;48.124;11.542;2023-06-01T03:46:57;8.82;;;4.00;;
80370;SDS011;69894;48.124;11.542;2023-06-01T03:49:22;9.35;;;3.78;;
80370;SDS011;69894;48.124;11.542;2023-06-01T03:51:48;8.88;;;3.47;;
80370;SDS011;69894;48.124;11.542;2023-06-01T03:54:13;7.60;;;4.18;;
80370;SDS011;69894;48.124;11.542;2023-06-01T03:56:38;10.57;;;4.43;;
80370;SDS011;69894;48.124;11.542;2023-06-01T03:59:04;12.05;;;4.13;;
80370;SDS011;69894;48.124;11.542;2023-06-01T04:01:31;9.15;;;3.78;;
80370;SDS011;69894;48.124;11.542;2023-06-01T04:03:57;9.25;;;4.25;;
80370;SDS011;69894;48.124;11.542;2023-06-01T04:06:23;10.82;;;5.00;;
80370;SDS011;69894;48.124;11.542;2023-06-01T04:08:49;9.90;;;4.00;;
80370;SDS011;69894;48.124;11.542;2023-06-01T04:11:16;7.80;;;3.90;;
80370;SDS011;69894;48.124;11.542;2023-06-01T04:13:42;11.98;;;4.57;;
80370;SDS011;69894;48.124;11.542;2023-06-01T04:16:08;9.18;;;4.20;;
80370;SDS011;69894;48.124;11.542;2023-06-01T04:18:34;9.25;;;4.18;;
80370;SDS011;69894;48.124;11.542;2023-06-01T04:21:00;13.00;;;4.47;;
80370;SDS011;69894;48.124;11.542;2023-06-01T04:23:25;10.50;;;4.30;;
80370;SDS011;69894;48.124;11.542;2023-06-01T04:25:50;9.52;;;4.20;;
80370;SDS011;69894;48.124;11.542;2023-06-01T04:28:16;9.40;;;4.32;;
80370;SDS011;69894;48.124;11.542;2023-06-01T04:30:42;10.48;;;4.22;;
80370;SDS011;69894;48.124;11.542;2023-06-01T04:33:09;9.73;;;4.20;;
80370;SDS011;69894;48.124;11.542;2023-06-01T04:35:35;11.80;;;4.05;;
80370;SDS011;69894;48.124;11.542;2023-06-01T04:38:02;9.38;;;3.90;;
80370;SDS011;69894;48.124;11.542;2023-06-01T04:40:27;8.95;;;4.28;;
80370;SDS011;69894;48.124;11.542;2023-06-01T04:42:53;8.32;;;4.10;;
80370;SDS011;69894;48.124;11.542;2023-06-01T04:45:20;8.90;;;3.65;;
80370;SDS011;69894;48.124;11.542;2023-06-01T04:47:46;10.13;;;4.35;;
80370;SDS011;69894;48.124;11.542;2023-06-01T04:50:12;8.75;;;4.38;;
80370;SDS011;69894;48.124;11.542;2023-06-01T04:52:41;10.25;;;4.38;;
80370;SDS011;69894;48.124;11.542;2023-06-01T04:55:07;13.68;;;4.65;;
80370;SDS011;69894;48.124;11.542;2023-06-01T04:57:34;12.65;;;5.03;;
80370;SDS011;69894;48.124;11.542;2023-06-01T05:00:04;8.98;;;4.00;;
80370;SDS011;69894;48.124;11.542;2023-06-01T05:02:36;13.20;;;4.10;;
80370;SDS011;69894;48.124;11.542;2023-06-01T05:05:02;11.35;;;4.85;;
80370;SDS011;69894;48.124;11.542;2023-06-01T05:07:29;9.15;;;4.40;;
80370;SDS011;69894;48.124;11.542;2023-06-01T05:09:55;10.32;;;4.60;;
80370;SDS011;69894;48.124;11.542;2023-06-01T05:12:20;9.88;;;4.32;;
80370;SDS011;69894;48.124;11.542;2023-06-01T05:14:46;13.27;;;4.55;;
80370;SDS011;69894;48.124;11.542;2023-06-01T05:17:11;9.75;;;4.18;;
80370;SDS011;69894;48.124;11.542;2023-06-01T05:19:37;14.25;;;5.10;;
80370;SDS011;69894;48.124;11.542;2023-06-01T05:22:02;9.27;;;4.25;;
80370;SDS011;69894;48.124;11.542;2023-06-01T05:24:28;16.52;;;4.65;;
80370;SDS011;69894;48.124;11.542;2023-06-01T05:26:53;10.82;;;5.00;;
80370;SDS011;69894;48.124;11.542;2023-06-01T05:29:19;11.30;;;4.50;;
80370;SDS011;69894;48.124;11.542;2023-06-01T05:31:45;10.73;;;5.25;;
80370;SDS011;69894;48.124;11.542;2023-06-01T05:34:13;9.55;;;4.95;;
80370;SDS011;69894;48.124;11.542;2023-06-01T05:36:39;8.68;;;4.80;;
80370;SDS011;69894;48.124;11.542;2023-06-01T05:39:04;10.35;;;5.15;;
80370;SDS011;69894;48.124;11.542;2023-06-01T05:41:30;9.30;;;5.20;;
80370;SDS011;69894;48.124;11.542;2023-06-01T05:43:56;13.13;;;5.70;;
80370;SDS011;69894;48.124;11.542;2023-06-01T05:46:22;13.27;;;5.45;;
80370;SDS011;69894;48.124;11.542;2023-06-01T05:48:49;8.25;;;5.18;;
80370;SDS011;69894;48.124;11.542;2023-06-01T05:51:15;9.07;;;4.72;;
80370;SDS011;69894;48.124;11.542;2023-06-01T05:53:41;12.85;;;6.07;;
80370;SDS011;69894;48.124;11.542;2023-06-01T05:56:10;9.75;;;5.53;;
80370;SDS011;69894;48.124;11.542;2023-06-01T05:58:35;11.52;;;5.82;;
80370;SDS011;69894;48.124;11.542;2023-06-01T06:01:01;11.80;;;6.13;;
80370;SDS011;69894;48.124;11.542;2023-06-01T06:03:26;10.70;;;6.30;;
80370;SDS011;69894;48.124;11.542;2023-06-01T06:05:54;12.80;;;6.57;;
80370;SDS011;69894;48.124;11.542;2023-06-01T06:08:19;12.52;;;7.30;;
80370;SDS011;69894;48.124;11.542;2023-06-01T06:10:47;11.40;;;7.35;;
80370;SDS011;69894;48.124;11.542;2023-06-01T06:13:13;16.30;;;6.90;;
80370;SDS011;69894;48.124;11.542;2023-06-01T06:15:40;10.32;;;7.38;;
80370;SDS011;69894;48.124;11.542;2023-06-01T06:18:06;10.80;;;7.38;;
80370;SDS011;69894;48.124;11.542;2023-06-01T06:20:34;10.23;;;6.50;;
80370;SDS011;69894;48.124;11.542;2023-06-01T06:23:00;11.68;;;7.45;;
80370;SDS011;69894;48.124;11.542;2023-06-01T06:25:26;12.18;;;7.22;;
80370;SDS011;69894;48.124;11.542;2023-06-01T06:27:52;12.32;;;8.30;;
80370;SDS011;69894;48.124;11.542;2023-06-01T06:30:21;12.47;;;8.10;;
80370;SDS011;69894;48.124;11.542;2023-06-01T06:32:47;11.15;;;7.80;;
80370;SDS011;69894;48.124;11.542;2023-06-01T06:35:16;10.98;;;8.23;;
80370;SDS011;69894;48.124;11.542;2023-06-01T06:37:41;10.00;;;7.70;;
80370;SDS011;69894;48.124;11.542;2023-06-01T06:40:08;14.40;;;9.25;;
80370;SDS011;69894;48.124;11.542;2023-06-01T06:42:37;16.20;;;8.23;;
80370;SDS011;69894;48.124;11.542;2023-06-01T06:45:02;11.60;;;8.30;;
80370;SDS011;69894;48.124;11.542;2023-06-01T06:47:29;11.57;;;8.88;;
80370;SDS011;69894;48.124;11.542;2023-06-01T06:49:55;9.95;;;8.35;;
80370;SDS011;69894;48.124;11.542;2023-06-01T06:52:21;10.45;;;7.68;;
80370;SDS011;69894;48.124;11.542;2023-06-01T06:54:46;11.10;;;9.90;;
80370;SDS011;69894;48.124;11.542;2023-06-01T06:57:12;9.80;;;8.80;;
80370;SDS011;69894;48.124;11.542;2023-06-01T06:59:37;10.47;;;9.37;;
80370;SDS011;69894;48.124;11.542;2023-06-01T07:02:03;10.38;;;8.15;;
80370;SDS011;69894;48.124;11.542;2023-06-01T07:04:28;11.93;;;9.73;;
80370;SDS011;69894;48.124;11.542;2023-06-01T07:06:54;12.15;;;10.70;;
80370;SDS011;69894;48.124;11.542;2023-06-01T07:09:19;12.73;;;10.90;;
80370;SDS011;69894;48.124;11.542;2023-06-01T07:11:45;11.97;;;10.27;;
80370;SDS011;69894;48.124;11.542;2023-06-01T07:14:12;15.32;;;11.68;;
80370;SDS011;69894;48.124;11.542;2023-06-01T07:16:37;13.70;;;10.73;;
80370;SDS011;69894;48.124;11.542;2023-06-01T07:19:03;13.70;;;10.67;;
80370;SDS011;69894;48.124;11.542;2023-06-01T07:21:28;13.18;;;10.90;;
80370;SDS011;69894;48.124;11.542;2023-06-01T07:23:54;11.30;;;10.20;;
80370;SDS011;69894;48.124;11.542;2023-06-01T07:26:20;12.63;;;11.43;;
80370;SDS011;69894;48.124;11.542;2023-06-01T07:28:46;13.50;;;12.07;;
80370;SDS011;69894;48.124;11.542;2023-06-01T07:31:17;12.10;;;10.98;;
80370;SDS011;69894;48.124;11.542;2023-06-01T07:33:42;12.17;;;10.17;;
80370;SDS011;69894;48.124;11.542;2023-06-01T07:36:08;11.38;;;10.20;;
80370;SDS011;69894;48.124;11.542;2023-06-01T07:38:33;12.98;;;11.77;;
80370;SDS011;69894;48.124;11.542;2023-06-01T07:40:59;15.70;;;11.82;;
80370;SDS011;69894;48.124;11.542;2023-06-01T07:43:24;11.50;;;10.32;;
80370;SDS011;69894;48.124;11.542;2023-06-01T07:45:50;14.32;;;11.18;;
80370;SDS011;69894;48.124;11.542;2023-06-01T07:48:15;14.03;;;10.50;;
80370;SDS011;69894;48.124;11.542;2023-06-01T07:50:41;12.30;;;11.13;;
80370;SDS011;69894;48.124;11.542;2023-06-01T07:53:06;11.93;;;10.70;;
80370;SDS011;69894;48.124;11.542;2023-06-01T07:55:34;13.48;;;12.07;;
80370;SDS011;69894;48.124;11.542;2023-06-01T07:58:01;13.63;;;12.30;;
80370;SDS011;69894;48.124;11.542;2023-06-01T08:00:26;14.20;;;12.73;;
80370;SDS011;69894;48.124;11.542;2023-06-01T08:02:51;14.47;;;13.27;;
80370;SDS011;69894;48.124;11.542;2023-06-01T08:05:17;12.25;;;11.10;;
80370;SDS011;69894;48.124;11.542;2023-06-01T08:07:43;11.65;;;10.65;;
80370;SDS011;69894;48.124;11.542;2023-06-01T08:10:11;13.60;;;12.40;;
80370;SDS011;69894;48.124;11.542;2023-06-01T08:12:37;12.50;;;10.98;;
80370;SDS011;69894;48.124;11.542;2023-06-01T08:15:03;13.13;;;11.57;;
80370;SDS011;69894;48.124;11.542;2023-06-01T08:17:29;11.88;;;10.68;;
80370;SDS011;69894;48.124;11.542;2023-06-01T08:19:55;12.02;;;10.90;;
80370;SDS011;69894;48.124;11.542;2023-06-01T08:22:22;12.07;;;10.93;;
80370;SDS011;69894;48.124;11.542;2023-06-01T08:24:49;19.05;;;12.35;;
80370;SDS011;69894;48.124;11.542;2023-06-01T08:29:46;13.15;;;11.88;;
80370;SDS011;69894;48.124;11.542;2023-06-01T08:32:12;13.23;;;12.00;;
80370;SDS011;69894;48.124;11.542;2023-06-01T08:34:38;13.30;;;11.90;;
80370;SDS011;69894;48.124;11.542;2023-06-01T08:37:03;12.35;;;11.13;;
80370;SDS011;69894;48.124;11.542;2023-06-01T08:39:29;12.93;;;11.65;;
80370;SDS011;69894;48.124;11.542;2023-06-01T08:42:04;17.50;;;11.63;;
80370;SDS011;69894;48.124;11.542;2023-06-01T08:44:37;13.53;;;11.07;;
80370;SDS011;69894;48.124;11.542;2023-06-01T08:47:04;11.35;;;10.25;;
80370;SDS011;69894;48.124;11.542;2023-06-01T08:49:30;12.07;;;10.88;;
80370;SDS011;69894;48.124;11.542;2023-06-01T08:51:56;11.05;;;9.98;;
80370;SDS011;69894;48.124;11.542;2023-06-01T08:54:25;11.55;;;10.23;;
80370;SDS011;69894;48.124;11.542;2023-06-01T08:56:51;12.32;;;8.65;;
80370;SDS011;69894;48.124;11.542;2023-06-01T08:59:16;8.97;;;5.37;;
80370;SDS011;69894;48.124;11.542;2023-06-01T09:01:42;10.77;;;5.55;;
80370;SDS011;69894;48.124;11.542;2023-06-01T09:04:07;11.52;;;5.47;;
80370;SDS011;69894;48.124;11.542;2023-06-01T09:06:34;7.22;;;4.55;;
80370;SDS011;69894;48.124;11.542;2023-06-01T09:09:01;7.18;;;4.38;;
80370;SDS011;69894;48.124;11.542;2023-06-01T09:11:27;7.82;;;4.53;;
80370;SDS011;69894;48.124;11.542;2023-06-01T09:13:53;9.35;;;4.25;;
80370;SDS011;69894;48.124;11.542;2023-06-01T09:16:18;12.27;;;4.88;;
80370;SDS011;69894;48.124;11.542;2023-06-01T09:18:54;10.07;;;4.95;;
80370;SDS011;69894;48.124;11.542;2023-06-01T09:21:20;9.02;;;4.32;;
80370;SDS011;69894;48.124;11.542;2023-06-01T09:23:45;14.30;;;5.20;;
80370;SDS011;69894;48.124;11.542;2023-06-01T09:26:12;14.60;;;5.65;;
80370;SDS011;69894;48.124;11.542;2023-06-01T09:28:52;9.63;;;4.63;;
80370;SDS011;69894;48.124;11.542;2023-06-01T09:34:06;10.75;;;4.78;;
80370;SDS011;69894;48.124;11.542;2023-06-01T09:36:33;8.90;;;4.30;;
80370;SDS011;69894;48.124;11.542;2023-06-01T09:39:02;13.57;;;4.70;;
80370;SDS011;69894;48.124;11.542;2023-06-01T09:44:30;9.05;;;4.78;;
80370;SDS011;69894;48.124;11.542;2023-06-01T09:47:07;8.30;;;3.90;;
80370;SDS011;69894;48.124;11.542;2023-06-01T09:49:38;9.52;;;4.03;;
80370;SDS011;69894;48.124;11.542;2023-06-01T09:54:40;9.07;;;4.37;;
80370;SDS011;69894;48.124;11.542;2023-06-01T09:57:10;11.38;;;4.70;;
80370;SDS011;69894;48.124;11.542;2023-06-01T09:59:40;9.32;;;4.95;;
80370;SDS011;69894;48.124;11.542;2023-06-01T10:02:16;8.00;;;4.45;;
80370;SDS011;69894;48.124;11.542;2023-06-01T10:07:18;10.73;;;5.03;;
80370;SDS011;69894;48.124;11.542;2023-06-01T10:09:48;8.98;;;5.22;;
80370;SDS011;69894;48.124;11.542;2023-06-01T10:12:15;7.55;;;4.15;;
80370;SDS011;69894;48.124;11.542;2023-06-01T10:14:41;10.30;;;3.95;;
80370;SDS011;69894;48.124;11.542;2023-06-01T10:17:07;13.05;;;5.05;;
80370;SDS011;69894;48.124;11.542;2023-06-01T10:19:34;12.88;;;4.60;;
80370;SDS011;69894;48.124;11.542;2023-06-01T10:22:02;7.70;;;3.72;;
80370;SDS011;69894;48.124;11.542;2023-06-01T10:24:28;10.60;;;4.63;;
80370;SDS011;69894;48.124;11.542;2023-06-01T10:29:26;8.88;;;4.25;;
80370;SDS011;69894;48.124;11.542;2023-06-01T10:31:53;7.03;;;3.95;;
80370;SDS011;69894;48.124;11.542;2023-06-01T10:34:35;7.00;;;4.10;;
80370;SDS011;69894;48.124;11.542;2023-06-01T10:39:33;9.18;;;4.60;;
80370;SDS011;69894;48.124;11.542;2023-06-01T10:44:49;7.38;;;3.70;;
80370;SDS011;69894;48.124;11.542;2023-06-01T10:52:26;8.52;;;4.78;;
80370;SDS011;69894;48.124;11.542;2023-06-01T10:54:53;9.13;;;3.67;;
80370;SDS011;69894;48.124;11.542;2023-06-01T10:57:42;9.38;;;3.83;;
80370;SDS011;69894;48.124;11.542;2023-06-01T11:02:59;9.02;;;3.72;;
80370;SDS011;69894;48.124;11.542;2023-06-01T11:05:45;7.95;;;3.92;;
80370;SDS011;69894;48.124;11.542;2023-06-01T11:10:58;8.98;;;4.13;;
80370;SDS011;69894;48.124;11.542;2023-06-01T11:13:28;7.13;;;4.03;;
80370;SDS011;69894;48.124;11.542;2023-06-01T11:21:10;9.75;;;3.63;;
80370;SDS011;69894;48.124;11.542;2023-06-01T11:23:37;9.18;;;4.43;;
80370;SDS011;69894;48.124;11.542;2023-06-01T11:26:05;8.55;;;4.47;;
80370;SDS011;69894;48.124;11.542;2023-06-01T11:28:31;7.93;;;3.53;;
80370;SDS011;69894;48.124;11.542;2023-06-01T11:30:56;8.32;;;3.85;;
80370;SDS011;69894;48.124;11.542;2023-06-01T11:33:24;10.73;;;4.35;;
80370;SDS011;69894;48.124;11.542;2023-06-01T11:35:57;7.72;;;4.03;;
80370;SDS011;69894;48.124;11.542;2023-06-01T11:38:23;7.85;;;4.00;;
80370;SDS011;69894;48.124;11.542;2023-06-01T11:41:01;7.82;;;3.78;;
80370;SDS011;69894;48.124;11.542;2023-06-01T11:43:28;7.53;;;4.22;;
80370;SDS011;69894;48.124;11.542;2023-06-01T11:46:12;8.00;;;3.75;;
80370;SDS011;69894;48.124;11.542;2023-06-01T11:48:40;8.50;;;3.83;;
80370;SDS011;69894;48.124;11.542;2023-06-01T11:51:05;8.75;;;4.10;;
80370;SDS011;69894;48.124;11.542;2023-06-01T11:53:30;6.47;;;3.25;;
80370;SDS011;69894;48.124;11.542;2023-06-01T11:55:59;10.50;;;3.95;;
80370;SDS011;69894;48.124;11.542;2023-06-01T11:58:26;7.88;;;3.60;;
80370;SDS011;69894;48.124;11.542;2023-06-01T12:00:52;10.02;;;3.97;;
80370;SDS011;69894;48.124;11.542;2023-06-01T12:03:18;8.38;;;3.80;;
80370;SDS011;69894;48.124;11.542;2023-06-01T12:05:44;11.80;;;3.75;;
80370;SDS011;69894;48.124;11.542;2023-06-01T12:08:31;8.38;;;3.70;;
80370;SDS011;69894;48.124;11.542;2023-06-01T12:11:00;9.05;;;3.75;;
80370;SDS011;69894;48.124;11.542;2023-06-01T12:13:28;11.10;;;3.67;;
80370;SDS011;69894;48.124;11.542;2023-06-01T12:15:54;7.88;;;3.85;;
80370;SDS011;69894;48.124;11.542;2023-06-01T12:18:29;7.68;;;4.10;;
80370;SDS011;69894;48.124;11.542;2023-06-01T12:20:55;8.05;;;3.88;;
80370;SDS011;69894;48.124;11.542;2023-06-01T12:23:21;8.52;;;3.55;;
80370;SDS011;69894;48.124;11.542;2023-06-01T12:25:54;8.95;;;4.10;;
80370;SDS011;69894;48.124;11.542;2023-06-01T12:28:23;7.47;;;4.03;;
80370;SDS011;69894;48.124;11.542;2023-06-01T12:31:13;6.90;;;3.95;;
80370;SDS011;69894;48.124;11.542;2023-06-01T12:33:40;11.23;;;4.30;;
80370;SDS011;69894;48.124;11.542;2023-06-01T12:36:08;7.30;;;3.92;;
80370;SDS011;69894;48.124;11.542;2023-06-01T12:38:55;8.23;;;3.58;;
80370;SDS011;69894;48.124;11.542;2023-06-01T12:41:19;7.70;;;4.05;;
80370;SDS011;69894;48.124;11.542;2023-06-01T12:43:46;7.45;;;3.97;;
80370;SDS011;69894;48.124;11.542;2023-06-01T12:48:48;6.97;;;3.65;;
80370;SDS011;69894;48.124;11.542;2023-06-01T12:51:13;8.40;;;3.63;;
80370;SDS011;69894;48.124;11.542;2023-06-01T12:53:40;6.97;;;3.47;;
80370;SDS011;69894;48.124;11.542;2023-06-01T12:56:07;6.07;;;3.33;;
80370;SDS011;69894;48.124;11.542;2023-06-01T12:58:33;7.68;;;3.70;;
80370;SDS011;69894;48.124;11.542;2023-06-01T13:00:58;8.55;;;4.47;;
80370;SDS011;69894;48.124;11.542;2023-06-01T13:03:23;8.70;;;4.20;;
80370;SDS011;69894;48.124;11.542;2023-06-01T13:05:49;9.57;;;4.07;;
80370;SDS011;69894;48.124;11.542;2023-06-01T13:08:16;8.65;;;3.78;;
80370;SDS011;69894;48.124;11.542;2023-06-01T13:10:41;8.35;;;3.70;;
80370;SDS011;69894;48.124;11.542;2023-06-01T13:13:08;8.80;;;3.92;;
80370;SDS011;69894;48.124;11.542;2023-06-01T13:15:34;9.02;;;4.03;;
80370;SDS011;69894;48.124;11.542;2023-06-01T13:18:00;6.80;;;3.80;;
80370;SDS011;69894;48.124;11.542;2023-06-01T13:20:25;6.93;;;3.72;;
80370;SDS011;69894;48.124;11.542;2023-06-01T13:22:51;6.93;;;3.75;;
80370;SDS011;69894;48.124;11.542;2023-06-01T13:25:17;8.85;;;4.25;;
80370;SDS011;69894;48.124;11.542;2023-06-01T13:27:43;7.60;;;4.07;;
80370;SDS011;69894;48.124;11.542;2023-06-01T13:30:09;9.23;;;3.60;;
80370;SDS011;69894;48.124;11.542;2023-06-01T13:32:35;6.28;;;3.10;;
80370;SDS011;69894;48.124;11.542;2023-06-01T13:35:00;9.15;;;3.90;;
80370;SDS011;69894;48.124;11.542;2023-06-01T13:37:26;7.35;;;3.63;;
80370;SDS011;69894;48.124;11.542;2023-06-01T13:39:51;7.43;;;3.50;;
80370;SDS011;69894;48.124;11.542;2023-06-01T13:42:16;9.13;;;3.90;;
80370;SDS011;69894;48.124;11.542;2023-06-01T13:44:42;10.70;;;4.00;;
80370;SDS011;69894;48.124;11.542;2023-06-01T13:47:10;7.82;;;3.60;;
80370;SDS011;69894;48.124;11.542;2023-06-01T13:49:41;6.63;;;3.30;;
80370;SDS011;69894;48.124;11.542;2023-06-01T13:52:08;8.73;;;3.95;;
80370;SDS011;69894;48.124;11.542;2023-06-01T13:54:33;7.75;;;3.47;;
80370;SDS011;69894;48.124;11.542;2023-06-01T13:56:59;7.25;;;3.67;;
80370;SDS011;69894;48.124;11.542;2023-06-01T13:59:24;7.50;;;3.97;;
80370;SDS011;69894;48.124;11.542;2023-06-01T14:01:50;7.22;;;3.85;;
80370;SDS011;69894;48.124;11.542;2023-06-01T14:04:18;6.40;;;3.65;;
80370;SDS011;69894;48.124;11.542;2023-06-01T14:06:43;10.05;;;4.20;;
80370;SDS011;69894;48.124;11.542;2023-06-01T14:09:09;6.15;;;3.72;;
80370;SDS011;69894;48.124;11.542;2023-06-01T14:11:35;10.10;;;3.63;;
80370;SDS011;69894;48.124;11.542;2023-06-01T14:14:00;10.85;;;4.53;;
80370;SDS011;69894;48.124;11.542;2023-06-01T14:16:26;7.57;;;3.67;;
80370;SDS011;69894;48.124;11.542;2023-06-01T14:18:51;8.07;;;4.00;;
80370;SDS011;69894;48.124;11.542;2023-06-01T14:21:17;7.57;;;3.95;;
80370;SDS011;69894;48.124;11.542;2023-06-01T14:23:42;9.50;;;3.55;;
80370;SDS011;69894;48.124;11.542;2023-06-01T14:26:09;11.18;;;4.00;;
80370;SDS011;69894;48.124;11.542;2023-06-01T14:28:35;7.38;;;3.47;;
80370;SDS011;69894;48.124;11.542;2023-06-01T14:31:00;7.13;;;3.75;;
80370;SDS011;69894;48.124;11.542;2023-06-01T14:33:26;6.40;;;3.30;;
80370;SDS011;69894;48.124;11.542;2023-06-01T14:35:51;6.03;;;3.42;;
80370;SDS011;69894;48.124;11.542;2023-06-01T14:38:17;6.70;;;3.25;;
80370;SDS011;69894;48.124;11.542;2023-06-01T14:40:42;7.47;;;3.47;;
80370;SDS011;69894;48.124;11.542;2023-06-01T14:43:08;7.80;;;3.22;;
80370;SDS011;69894;48.124;11.542;2023-06-01T14:45:33;4.55;;;3.13;;
80370;SDS011;69894;48.124;11.542;2023-06-01T14:47:58;7.93;;;3.42;;
80370;SDS011;69894;48.124;11.542;2023-06-01T14:50:24;9.20;;;3.50;;
80370;SDS011;69894;48.124;11.542;2023-06-01T14:52:49;6.03;;;3.75;;
80370;SDS011;69894;48.124;11.542;2023-06-01T14:55:15;8.05;;;3.78;;
80370;SDS011;69894;48.124;11.542;2023-06-01T14:57:41;8.07;;;3.17;;
80370;SDS011;69894;48.124;11.542;2023-06-01T15:00:07;6.30;;;3.33;;
80370;SDS011;69894;48.124;11.542;2023-06-01T15:02:33;8.70;;;3.63;;
80370;SDS011;69894;48.124;11.542;2023-06-01T15:04:59;7.63;;;3.40;;
80370;SDS011;69894;48.124;11.542;2023-06-01T15:07:25;8.85;;;3.55;;
80370;SDS011;69894;48.124;11.542;2023-06-01T15:09:50;6.82;;;3.25;;
80370;SDS011;69894;48.124;11.542;2023-06-01T15:12:18;6.88;;;3.10;;
80370;SDS011;69894;48.124;11.542;2023-06-01T15:14:43;6.97;;;3.17;;
80370;SDS011;69894;48.124;11.542;2023-06-01T15:17:09;4.95;;;3.05;;
80370;SDS011;69894;48.124;11.542;2023-06-01T15:19:34;7.03;;;3.20;;